Time;durP1;ratioP1;P1;durP2;ratioP2;P2;SDS_P1;SDS_P2;PMS_P1;PMS_P2;Temp;Humidity;BMP_temperature;BMP_pressure;BME280_temperature;BME280_humidity;BME280_pressure;Samples;Min_cycle;Max_cycle;Signal;HPM_P1;HPM_P2
2021/12/23 00:00:53;;;;;;;107.70;48.27;;;;;;;;;;730065;189;918397;-69
2021/12/23 00:03:19;;;;;;;94.67;47.77;;;;;;;;;;727849;189;919109;-69
2021/12/23 00:05:45;;;;;;;83.60;47.77;;;;;;;;;;737231;189;917693;-69
2021/12/23 00:08:11;;;;;;;95.72;46.30;;;;;;;;;;734077;189;922064;-69
2021/12/23 00:10:37;;;;;;;81.30;43.97;;;;;;;;;;730773;190;918847;-68
2021/12/23 00:13:03;;;;;;;87.00;45.70;;;;;;;;;;736199;189;918770;-69
2021/12/23 00:15:36;;;;;;;77.90;43.93;;;;;;;;;;732962;187;917921;-69
2021/12/23 00:17:59;;;;;;;89.57;47.20;;;;;;;;;;736110;189;914048;-68
2021/12/23 00:25:28;;;;;;;90.20;48.97;;;;;;;;;;716572;193;916644;-69
2021/12/23 00:27:53;;;;;;;89.20;50.87;;;;;;;;;;735019;189;916256;-70
2021/12/23 00:30:19;;;;;;;88.97;48.47;;;;;;;;;;734734;189;630387;-70
2021/12/23 00:32:46;;;;;;;81.90;46.40;;;;;;;;;;726782;189;918384;-68
2021/12/23 00:35:12;;;;;;;81.33;48.23;;;;;;;;;;711807;193;919271;-69
2021/12/23 00:37:42;;;;;;;85.17;45.20;;;;;;;;;;724943;189;919093;-69
2021/12/23 00:40:05;;;;;;;77.00;44.90;;;;;;;;;;721342;193;917807;-69
2021/12/23 00:42:32;;;;;;;80.70;45.83;;;;;;;;;;726521;189;921582;-69
2021/12/23 00:44:57;;;;;;;81.73;44.20;;;;;;;;;;726399;189;918370;-69
2021/12/23 00:47:23;;;;;;;73.62;42.50;;;;;;;;;;722810;192;918627;-69
2021/12/23 00:49:48;;;;;;;71.20;43.10;;;;;;;;;;719679;190;919198;-69
2021/12/23 00:52:17;;;;;;;68.83;41.10;;;;;;;;;;722228;189;919198;-69
2021/12/23 00:54:40;;;;;;;78.57;42.60;;;;;;;;;;724246;189;918562;-69
2021/12/23 00:57:06;;;;;;;73.17;42.87;;;;;;;;;;722657;189;919494;-69
2021/12/23 00:59:32;;;;;;;67.73;36.50;;;;;;;;;;721028;189;918562;-67
2021/12/23 01:01:58;;;;;;;73.62;41.35;;;;;;;;;;723045;190;919152;-68
2021/12/23 01:04:23;;;;;;;79.40;44.40;;;;;;;;;;728514;189;918327;-67
2021/12/23 01:06:50;;;;;;;75.20;44.73;;;;;;;;;;721675;190;918802;-67
2021/12/23 01:09:16;;;;;;;68.37;44.80;;;;;;;;;;729799;190;919126;-68
2021/12/23 01:11:42;;;;;;;76.60;47.90;;;;;;;;;;733099;190;625834;-68
2021/12/23 01:19:12;;;;;;;72.37;45.07;;;;;;;;;;727395;189;624613;-68
2021/12/23 01:21:36;;;;;;;84.73;47.23;;;;;;;;;;727418;189;612112;-68
2021/12/23 01:24:02;;;;;;;88.17;50.10;;;;;;;;;;720920;189;918208;-67
2021/12/23 01:26:28;;;;;;;78.83;48.80;;;;;;;;;;731989;186;1014087;-68
2021/12/23 01:28:54;;;;;;;78.18;47.47;;;;;;;;;;730333;190;919297;-66
2021/12/23 01:31:20;;;;;;;89.33;46.33;;;;;;;;;;733847;187;919339;-67
2021/12/23 01:33:46;;;;;;;79.83;47.77;;;;;;;;;;724089;191;918288;-68
2021/12/23 01:36:12;;;;;;;77.18;47.03;;;;;;;;;;726928;189;919056;-68
2021/12/23 01:38:38;;;;;;;74.43;45.60;;;;;;;;;;729494;189;918504;-68
2021/12/23 01:41:03;;;;;;;63.95;40.08;;;;;;;;;;730409;189;1021739;-68
2021/12/23 01:43:29;;;;;;;70.72;41.97;;;;;;;;;;730378;189;917696;-68
2021/12/23 01:45:55;;;;;;;64.67;41.60;;;;;;;;;;728419;189;917787;-67
2021/12/23 01:48:21;;;;;;;77.07;44.78;;;;;;;;;;730882;189;921585;-67
2021/12/23 01:50:47;;;;;;;62.87;37.57;;;;;;;;;;732570;189;917572;-68
2021/12/23 01:53:13;;;;;;;61.30;38.40;;;;;;;;;;729623;191;616743;-68
2021/12/23 01:55:38;;;;;;;65.73;39.30;;;;;;;;;;719843;190;919824;-68
2021/12/23 01:58:04;;;;;;;71.03;40.87;;;;;;;;;;725840;190;634662;-67
2021/12/23 02:00:30;;;;;;;60.00;39.60;;;;;;;;;;733172;190;624608;-67
2021/12/23 02:02:56;;;;;;;64.80;39.43;;;;;;;;;;731087;189;1021196;-68
2021/12/23 02:05:22;;;;;;;59.63;38.17;;;;;;;;;;730991;189;618814;-67
2021/12/23 02:07:48;;;;;;;65.80;39.80;;;;;;;;;;729881;189;614901;-68
2021/12/23 02:10:13;;;;;;;71.73;40.50;;;;;;;;;;725706;189;624827;-68
2021/12/23 02:12:40;;;;;;;65.57;38.60;;;;;;;;;;726556;189;920746;-67
2021/12/23 02:15:06;;;;;;;63.40;40.53;;;;;;;;;;728702;189;918051;-67
2021/12/23 02:17:32;;;;;;;71.00;40.40;;;;;;;;;;725485;192;916452;-68
2021/12/23 02:19:58;;;;;;;60.10;37.23;;;;;;;;;;719799;190;916530;-67
2021/12/23 02:22:24;;;;;;;68.80;36.30;;;;;;;;;;716046;190;915304;-67
2021/12/23 02:24:50;;;;;;;57.50;38.23;;;;;;;;;;717187;193;919673;-67
2021/12/23 02:27:15;;;;;;;58.08;37.60;;;;;;;;;;727550;190;915655;-67
2021/12/23 02:29:41;;;;;;;61.57;38.93;;;;;;;;;;721674;189;920358;-67
2021/12/23 02:32:07;;;;;;;64.67;39.70;;;;;;;;;;725561;189;915536;-67
2021/12/23 02:34:33;;;;;;;60.43;36.53;;;;;;;;;;733457;189;1017300;-67
2021/12/23 02:36:59;;;;;;;68.63;38.60;;;;;;;;;;722943;189;1016850;-67
2021/12/23 02:39:25;;;;;;;62.57;39.87;;;;;;;;;;726951;191;914327;-67
2021/12/23 02:41:51;;;;;;;94.60;51.37;;;;;;;;;;724728;191;919137;-68
2021/12/23 02:44:17;;;;;;;123.87;66.90;;;;;;;;;;729056;189;919448;-67
2021/12/23 02:46:42;;;;;;;107.67;57.67;;;;;;;;;;733970;186;919492;-66
2021/12/23 02:49:08;;;;;;;80.63;47.93;;;;;;;;;;728865;189;918052;-68
2021/12/23 02:51:34;;;;;;;96.53;50.70;;;;;;;;;;736088;189;642737;-68
2021/12/23 02:54:00;;;;;;;99.43;53.53;;;;;;;;;;733399;189;1490390;-67
2021/12/23 02:56:26;;;;;;;89.67;49.10;;;;;;;;;;728444;189;635747;-67
2021/12/23 02:58:52;;;;;;;85.23;49.40;;;;;;;;;;729571;190;628615;-67
2021/12/23 03:01:18;;;;;;;89.70;48.00;;;;;;;;;;733304;189;637383;-67
2021/12/23 03:03:44;;;;;;;89.17;48.90;;;;;;;;;;731889;189;918584;-67
2021/12/23 03:06:09;;;;;;;86.63;45.95;;;;;;;;;;727666;192;918148;-67
2021/12/23 03:08:38;;;;;;;84.67;46.17;;;;;;;;;;726504;190;918766;-67
2021/12/23 03:11:05;;;;;;;82.50;45.40;;;;;;;;;;720501;189;2147973;-68
2021/12/23 03:13:30;;;;;;;75.03;43.80;;;;;;;;;;717634;189;918770;-67
2021/12/23 03:15:56;;;;;;;74.70;45.03;;;;;;;;;;724312;189;919717;-68
2021/12/23 03:18:22;;;;;;;71.70;42.93;;;;;;;;;;718125;190;920151;-67
2021/12/23 03:20:48;;;;;;;70.17;41.00;;;;;;;;;;723568;189;919436;-67
2021/12/23 03:23:14;;;;;;;75.30;44.90;;;;;;;;;;738074;189;918349;-67
2021/12/23 03:25:40;;;;;;;76.93;44.70;;;;;;;;;;727637;189;919718;-68
2021/12/23 03:28:05;;;;;;;73.30;44.95;;;;;;;;;;725206;192;918641;-67
2021/12/23 03:30:31;;;;;;;75.70;43.30;;;;;;;;;;734982;190;919651;-68
2021/12/23 03:32:57;;;;;;;77.80;45.50;;;;;;;;;;734031;189;919309;-68
2021/12/23 03:35:23;;;;;;;68.33;42.70;;;;;;;;;;732375;189;1010873;-68
2021/12/23 03:37:49;;;;;;;72.30;44.63;;;;;;;;;;719256;189;918913;-67
2021/12/23 03:40:15;;;;;;;66.53;40.97;;;;;;;;;;719419;189;918935;-68
2021/12/23 03:42:41;;;;;;;73.70;41.77;;;;;;;;;;709561;193;918328;-68
2021/12/23 03:45:08;;;;;;;76.80;43.07;;;;;;;;;;732431;189;919343;-67
2021/12/23 03:47:33;;;;;;;76.17;46.30;;;;;;;;;;722311;189;917381;-67
2021/12/23 03:49:59;;;;;;;78.57;44.90;;;;;;;;;;726832;189;919098;-68
2021/12/23 03:52:24;;;;;;;66.17;43.27;;;;;;;;;;721417;191;918241;-67
2021/12/23 03:54:50;;;;;;;71.62;41.25;;;;;;;;;;727414;192;918841;-68
2021/12/23 03:57:16;;;;;;;73.90;42.63;;;;;;;;;;735025;189;918320;-68
2021/12/23 03:59:42;;;;;;;69.43;39.10;;;;;;;;;;733985;189;1133635;-68
2021/12/23 04:02:08;;;;;;;68.43;37.70;;;;;;;;;;734648;189;918527;-68
2021/12/23 04:04:34;;;;;;;71.07;40.80;;;;;;;;;;735352;189;918572;-67
2021/12/23 04:06:59;;;;;;;59.30;36.20;;;;;;;;;;731024;189;626039;-68
2021/12/23 04:09:25;;;;;;;69.10;42.33;;;;;;;;;;720441;189;918511;-68
2021/12/23 04:11:51;;;;;;;60.97;36.53;;;;;;;;;;724886;189;918921;-67
2021/12/23 04:14:17;;;;;;;59.92;35.30;;;;;;;;;;728206;189;918598;-67
2021/12/23 04:16:43;;;;;;;61.67;33.50;;;;;;;;;;724177;190;919042;-68
2021/12/23 04:19:10;;;;;;;58.50;36.47;;;;;;;;;;729431;189;919198;-67
2021/12/23 04:21:34;;;;;;;55.87;31.43;;;;;;;;;;727781;189;918672;-67
2021/12/23 04:24:00;;;;;;;59.83;36.70;;;;;;;;;;727733;190;918638;-67
2021/12/23 04:26:26;;;;;;;61.47;34.08;;;;;;;;;;733344;191;911241;-67
2021/12/23 04:28:52;;;;;;;64.77;33.97;;;;;;;;;;721826;190;920092;-67
2021/12/23 04:31:19;;;;;;;66.17;36.10;;;;;;;;;;719074;189;916747;-67
2021/12/23 04:33:44;;;;;;;64.43;35.73;;;;;;;;;;717715;189;918162;-67
2021/12/23 04:36:10;;;;;;;56.55;37.53;;;;;;;;;;728907;188;921909;-68
2021/12/23 04:38:36;;;;;;;72.17;37.70;;;;;;;;;;724685;190;920232;-67
2021/12/23 04:41:02;;;;;;;67.53;38.93;;;;;;;;;;722646;189;916226;-67
2021/12/23 04:43:28;;;;;;;71.60;41.87;;;;;;;;;;726098;192;915135;-68
2021/12/23 04:45:54;;;;;;;73.70;44.73;;;;;;;;;;721491;189;918815;-66
2021/12/23 04:48:20;;;;;;;80.90;45.17;;;;;;;;;;721748;190;919192;-66
2021/12/23 04:50:45;;;;;;;78.10;43.67;;;;;;;;;;725143;192;918768;-68
2021/12/23 04:53:11;;;;;;;79.73;48.13;;;;;;;;;;726506;190;919106;-67
2021/12/23 04:55:37;;;;;;;74.77;43.60;;;;;;;;;;727038;189;919579;-67
2021/12/23 04:58:03;;;;;;;82.80;48.00;;;;;;;;;;727173;189;919248;-65
2021/12/23 05:00:29;;;;;;;66.53;40.50;;;;;;;;;;731639;189;918333;-66
2021/12/23 05:02:55;;;;;;;70.03;41.10;;;;;;;;;;715979;192;918652;-66
2021/12/23 05:05:21;;;;;;;83.50;46.57;;;;;;;;;;733678;189;919122;-65
2021/12/23 05:07:48;;;;;;;89.87;50.67;;;;;;;;;;727983;189;919434;-67
2021/12/23 05:10:12;;;;;;;77.57;45.47;;;;;;;;;;722226;189;918918;-67
2021/12/23 05:12:43;;;;;;;90.50;49.85;;;;;;;;;;729471;189;935335;-67
2021/12/23 05:15:05;;;;;;;98.13;46.33;;;;;;;;;;722928;191;1022216;-67
2021/12/23 05:17:31;;;;;;;81.77;45.10;;;;;;;;;;725725;189;1325681;-67
2021/12/23 05:19:57;;;;;;;79.83;45.40;;;;;;;;;;727791;189;918973;-67
2021/12/23 05:22:23;;;;;;;67.05;39.60;;;;;;;;;;722195;189;918452;-66
2021/12/23 05:24:50;;;;;;;60.17;35.50;;;;;;;;;;730157;189;919670;-67
2021/12/23 05:27:15;;;;;;;64.70;39.60;;;;;;;;;;724504;189;918886;-67
2021/12/23 05:29:41;;;;;;;64.73;40.40;;;;;;;;;;725089;189;918756;-67
2021/12/23 05:32:08;;;;;;;64.83;39.53;;;;;;;;;;731084;189;918334;-68
2021/12/23 05:34:33;;;;;;;117.33;58.47;;;;;;;;;;729398;189;919056;-67
2021/12/23 05:36:59;;;;;;;96.53;49.87;;;;;;;;;;727791;189;919292;-67
2021/12/23 05:39:25;;;;;;;77.87;46.13;;;;;;;;;;729485;189;917633;-67
2021/12/23 05:41:51;;;;;;;90.20;46.95;;;;;;;;;;723904;189;918749;-67
2021/12/23 05:44:17;;;;;;;88.00;47.72;;;;;;;;;;719459;189;1120546;-67
2021/12/23 05:46:43;;;;;;;70.72;41.50;;;;;;;;;;725970;189;915907;-66
2021/12/23 05:49:09;;;;;;;75.87;38.37;;;;;;;;;;736141;187;989067;-67
2021/12/23 05:51:35;;;;;;;61.90;38.20;;;;;;;;;;714507;193;916140;-67
2021/12/23 05:54:01;;;;;;;56.72;33.63;;;;;;;;;;718160;192;918927;-68
2021/12/23 05:56:27;;;;;;;62.50;35.13;;;;;;;;;;711227;194;917782;-67
2021/12/23 05:58:53;;;;;;;50.40;29.40;;;;;;;;;;695106;200;919147;-67
2021/12/23 06:01:18;;;;;;;54.50;32.40;;;;;;;;;;716158;193;907518;-67
2021/12/23 06:03:46;;;;;;;56.33;32.80;;;;;;;;;;729678;191;918885;-67
2021/12/23 06:06:10;;;;;;;50.88;33.03;;;;;;;;;;724878;189;920017;-67
2021/12/23 06:08:36;;;;;;;57.73;33.27;;;;;;;;;;716324;190;918564;-67
2021/12/23 06:11:02;;;;;;;55.70;32.77;;;;;;;;;;722322;192;916144;-67
2021/12/23 06:13:28;;;;;;;60.77;34.67;;;;;;;;;;730311;189;915529;-67
2021/12/23 06:15:53;;;;;;;59.20;33.90;;;;;;;;;;730610;189;921152;-68
2021/12/23 06:18:19;;;;;;;58.93;34.53;;;;;;;;;;719807;189;914813;-67
2021/12/23 06:20:45;;;;;;;52.80;31.40;;;;;;;;;;732330;189;919204;-67
2021/12/23 06:23:11;;;;;;;55.00;33.83;;;;;;;;;;728956;189;919208;-68
2021/12/23 06:25:37;;;;;;;48.72;29.87;;;;;;;;;;730273;189;1020023;-67
2021/12/23 06:28:03;;;;;;;48.33;27.90;;;;;;;;;;733432;189;918931;-67
2021/12/23 06:30:29;;;;;;;42.33;27.47;;;;;;;;;;724173;189;919635;-67
2021/12/23 06:32:55;;;;;;;44.73;26.83;;;;;;;;;;716831;190;918946;-67
2021/12/23 06:35:20;;;;;;;49.13;30.40;;;;;;;;;;720482;191;917031;-68
2021/12/23 06:37:46;;;;;;;46.53;27.37;;;;;;;;;;719221;189;920708;-67
2021/12/23 06:40:12;;;;;;;49.07;28.00;;;;;;;;;;720004;190;1116388;-67
2021/12/23 06:42:38;;;;;;;45.37;26.50;;;;;;;;;;730876;189;920411;-67
2021/12/23 06:45:04;;;;;;;46.83;26.80;;;;;;;;;;726964;189;909648;-67
2021/12/23 06:47:30;;;;;;;55.60;29.03;;;;;;;;;;731514;189;917525;-67
2021/12/23 06:49:56;;;;;;;54.25;28.33;;;;;;;;;;727038;189;920465;-68
2021/12/23 06:52:22;;;;;;;50.87;28.33;;;;;;;;;;733518;189;914022;-67
2021/12/23 06:54:52;;;;;;;49.10;29.03;;;;;;;;;;731373;189;914519;-68
2021/12/23 06:57:14;;;;;;;50.87;29.30;;;;;;;;;;726452;189;1022461;-68
2021/12/23 06:59:39;;;;;;;41.87;27.27;;;;;;;;;;732676;189;920522;-67
2021/12/23 07:02:05;;;;;;;47.70;25.70;;;;;;;;;;736809;186;634990;-67
2021/12/23 07:04:33;;;;;;;54.10;28.90;;;;;;;;;;730377;189;631936;-68
2021/12/23 07:07:08;;;;;;;47.00;28.43;;;;;;;;;;722923;189;629010;-67
2021/12/23 07:09:33;;;;;;;54.60;30.07;;;;;;;;;;735182;189;622404;-67
2021/12/23 07:11:58;;;;;;;55.97;29.57;;;;;;;;;;726515;188;627060;-67
2021/12/23 07:14:24;;;;;;;44.22;27.23;;;;;;;;;;728940;189;916963;-67
2021/12/23 07:16:50;;;;;;;48.23;28.40;;;;;;;;;;723447;189;924475;-67
2021/12/23 07:19:16;;;;;;;48.67;29.60;;;;;;;;;;724586;189;915983;-67
2021/12/23 07:21:42;;;;;;;51.57;28.03;;;;;;;;;;724032;189;913915;-67
2021/12/23 07:24:08;;;;;;;56.53;30.67;;;;;;;;;;723690;189;947925;-67
2021/12/23 07:26:34;;;;;;;47.20;28.53;;;;;;;;;;730410;186;1011883;-67
2021/12/23 07:28:59;;;;;;;49.83;29.83;;;;;;;;;;720944;189;919144;-67
2021/12/23 07:31:25;;;;;;;52.80;29.50;;;;;;;;;;732096;189;917041;-67
2021/12/23 07:33:51;;;;;;;58.20;30.80;;;;;;;;;;737376;189;934998;-67
2021/12/23 07:36:17;;;;;;;63.83;30.80;;;;;;;;;;721749;189;917788;-67
2021/12/23 07:38:43;;;;;;;62.53;31.45;;;;;;;;;;719983;189;918464;-67
2021/12/23 07:41:09;;;;;;;70.97;35.97;;;;;;;;;;726058;189;924079;-67
2021/12/23 07:46:15;;;;;;;66.37;37.70;;;;;;;;;;722459;189;919240;-68
2021/12/23 07:48:41;;;;;;;65.47;37.87;;;;;;;;;;719316;190;945955;-68
2021/12/23 07:51:07;;;;;;;66.43;35.72;;;;;;;;;;726298;189;920722;-67
2021/12/23 07:53:33;;;;;;;70.97;35.87;;;;;;;;;;726649;189;916770;-67
2021/12/23 07:55:59;;;;;;;78.70;40.30;;;;;;;;;;724049;189;917833;-68
2021/12/23 07:58:25;;;;;;;82.10;39.03;;;;;;;;;;717320;189;919570;-68
2021/12/23 08:00:51;;;;;;;89.80;42.80;;;;;;;;;;728934;189;917758;-68
2021/12/23 08:03:17;;;;;;;80.67;41.77;;;;;;;;;;727346;190;920656;-68
2021/12/23 08:05:42;;;;;;;80.70;38.50;;;;;;;;;;725050;192;919151;-68
2021/12/23 08:08:08;;;;;;;91.60;43.07;;;;;;;;;;734296;189;918834;-68
2021/12/23 08:10:34;;;;;;;85.27;37.40;;;;;;;;;;725323;189;951359;-68
2021/12/23 08:13:01;;;;;;;66.27;34.90;;;;;;;;;;718834;190;914698;-68
2021/12/23 08:15:26;;;;;;;68.93;30.77;;;;;;;;;;724944;189;915549;-68
2021/12/23 08:17:52;;;;;;;64.00;32.47;;;;;;;;;;727255;190;1118963;-67
2021/12/23 08:20:18;;;;;;;63.40;33.53;;;;;;;;;;727210;190;914935;-68
2021/12/23 08:22:44;;;;;;;64.60;33.43;;;;;;;;;;717273;190;915714;-68
2021/12/23 08:25:10;;;;;;;61.00;33.30;;;;;;;;;;731158;190;917909;-68
2021/12/23 08:27:36;;;;;;;61.03;28.43;;;;;;;;;;734359;189;915320;-68
2021/12/23 08:30:02;;;;;;;55.00;28.77;;;;;;;;;;718668;192;915107;-67
2021/12/23 08:32:28;;;;;;;46.70;28.23;;;;;;;;;;723125;189;916263;-68
2021/12/23 08:34:54;;;;;;;57.10;26.83;;;;;;;;;;720834;189;814710;-67
2021/12/23 08:37:20;;;;;;;49.17;25.95;;;;;;;;;;724822;187;923670;-67
2021/12/23 08:39:48;;;;;;;46.90;22.47;;;;;;;;;;732569;189;931309;-67
2021/12/23 08:42:12;;;;;;;45.03;23.57;;;;;;;;;;728638;188;920836;-68
2021/12/23 08:44:40;;;;;;;43.10;24.37;;;;;;;;;;731809;189;908611;-68
2021/12/23 08:47:04;;;;;;;41.60;20.67;;;;;;;;;;733429;186;1005431;-67
2021/12/23 08:49:30;;;;;;;41.35;22.30;;;;;;;;;;729940;189;1022249;-68
2021/12/23 08:51:56;;;;;;;39.80;21.80;;;;;;;;;;730874;189;922964;-68
2021/12/23 08:54:22;;;;;;;43.93;21.63;;;;;;;;;;726263;189;1016245;-67
2021/12/23 08:56:48;;;;;;;32.50;20.77;;;;;;;;;;730771;190;881150;-67
2021/12/23 08:59:13;;;;;;;38.87;19.97;;;;;;;;;;728896;189;929243;-66
2021/12/23 09:01:40;;;;;;;42.90;21.80;;;;;;;;;;715358;190;930598;-67
2021/12/23 09:04:05;;;;;;;31.87;17.33;;;;;;;;;;730984;189;907162;-68
2021/12/23 09:06:31;;;;;;;34.57;19.17;;;;;;;;;;719852;190;933575;-68
2021/12/23 09:08:58;;;;;;;37.47;20.10;;;;;;;;;;729678;189;650593;-67
2021/12/23 09:11:23;;;;;;;34.40;20.67;;;;;;;;;;720001;191;921019;-67
2021/12/23 09:13:49;;;;;;;32.33;18.37;;;;;;;;;;721034;189;915059;-66
2021/12/23 09:16:15;;;;;;;37.20;20.02;;;;;;;;;;730191;189;933875;-67
2021/12/23 09:18:40;;;;;;;50.03;24.57;;;;;;;;;;728893;189;917540;-67
2021/12/23 09:21:06;;;;;;;31.97;20.23;;;;;;;;;;725056;190;917602;-67
2021/12/23 09:23:32;;;;;;;36.87;18.83;;;;;;;;;;729021;189;915871;-66
2021/12/23 09:25:58;;;;;;;40.93;20.77;;;;;;;;;;729913;186;926177;-65
2021/12/23 09:28:31;;;;;;;35.70;19.97;;;;;;;;;;731766;189;930646;-66
2021/12/23 09:33:21;;;;;;;31.70;17.63;;;;;;;;;;722154;190;923041;-66
2021/12/23 09:35:47;;;;;;;30.77;17.37;;;;;;;;;;720654;189;920341;-66
2021/12/23 09:38:13;;;;;;;25.27;16.63;;;;;;;;;;726467;191;919931;-65
2021/12/23 09:40:39;;;;;;;33.17;18.83;;;;;;;;;;726384;189;919088;-66
2021/12/23 09:43:05;;;;;;;27.50;17.10;;;;;;;;;;727434;189;918545;-66
2021/12/23 09:45:31;;;;;;;30.07;16.50;;;;;;;;;;728482;189;919058;-66
2021/12/23 09:47:57;;;;;;;27.23;16.50;;;;;;;;;;727173;186;939370;-65
2021/12/23 09:50:23;;;;;;;29.00;15.90;;;;;;;;;;722183;189;922344;-66
2021/12/23 09:52:49;;;;;;;28.02;15.32;;;;;;;;;;726706;189;928907;-63
2021/12/23 09:55:15;;;;;;;29.40;17.47;;;;;;;;;;730804;189;881191;-64
2021/12/23 09:57:41;;;;;;;30.77;17.70;;;;;;;;;;727320;189;1021732;-65
2021/12/23 10:00:09;;;;;;;33.53;17.48;;;;;;;;;;727282;189;918533;-65
2021/12/23 10:02:35;;;;;;;25.97;14.93;;;;;;;;;;730076;189;918450;-66
2021/12/23 10:05:00;;;;;;;25.97;15.47;;;;;;;;;;731422;189;926348;-66
2021/12/23 10:07:27;;;;;;;33.23;17.87;;;;;;;;;;719090;189;917797;-65
2021/12/23 10:10:03;;;;;;;20.73;13.75;;;;;;;;;;738261;189;919602;-65
2021/12/23 10:13:06;;;;;;;28.90;15.83;;;;;;;;;;732722;189;923452;-65
2021/12/23 10:29:34;;;;;;;18.67;12.00;;;;;;;;;;730545;190;919187;-65
2021/12/23 10:30:28;;;;;;;22.57;13.00;;;;;;;;;;729279;189;919796;-66
2021/12/23 10:38:13;;;;;;;32.67;17.30;;;;;;;;;;720428;189;919109;-65
2021/12/23 10:40:39;;;;;;;31.93;21.43;;;;;;;;;;732352;189;918912;-64
2021/12/23 10:43:06;;;;;;;32.53;17.10;;;;;;;;;;730005;189;918770;-64
2021/12/23 10:45:35;;;;;;;30.27;17.50;;;;;;;;;;726265;190;919976;-64
2021/12/23 10:48:05;;;;;;;33.00;20.73;;;;;;;;;;719539;188;919238;-64
2021/12/23 10:50:36;;;;;;;38.77;19.20;;;;;;;;;;726125;189;919421;-64
2021/12/23 10:52:59;;;;;;;35.33;18.93;;;;;;;;;;724564;189;919293;-65
2021/12/23 10:58:09;;;;;;;29.90;18.47;;;;;;;;;;731479;189;920117;-63
2021/12/23 11:00:31;;;;;;;31.80;19.83;;;;;;;;;;724924;189;918392;-64
2021/12/23 11:03:19;;;;;;;31.30;18.53;;;;;;;;;;729702;189;919403;-64
2021/12/23 11:05:47;;;;;;;32.63;17.30;;;;;;;;;;733727;189;918916;-63
2021/12/23 11:08:17;;;;;;;30.67;19.50;;;;;;;;;;731912;189;920835;-63
2021/12/23 11:11:14;;;;;;;34.33;20.50;;;;;;;;;;723882;189;918663;-64
2021/12/23 11:29:30;;;;;;;37.53;21.87;;;;;;;;;;731524;189;920118;-65
2021/12/23 11:39:24;;;;;;;38.00;23.57;;;;;;;;;;727493;189;625863;-64
2021/12/23 11:41:37;;;;;;;39.67;20.73;;;;;;;;;;728482;189;918821;-65
2021/12/23 11:43:59;;;;;;;45.63;25.80;;;;;;;;;;724248;189;919066;-65
2021/12/23 11:46:29;;;;;;;41.57;23.43;;;;;;;;;;720504;189;1039951;-65
2021/12/23 11:48:54;;;;;;;35.90;21.60;;;;;;;;;;727213;189;919902;-65
2021/12/23 11:51:22;;;;;;;41.57;22.80;;;;;;;;;;714684;193;1003917;-64
2021/12/23 11:53:47;;;;;;;41.90;24.20;;;;;;;;;;720092;189;927071;-63
2021/12/23 11:56:11;;;;;;;40.57;20.53;;;;;;;;;;728230;189;918736;-63
2021/12/23 11:58:37;;;;;;;39.77;21.60;;;;;;;;;;721839;189;921289;-64
2021/12/23 12:01:04;;;;;;;33.50;20.90;;;;;;;;;;719588;190;919606;-63
2021/12/23 12:03:30;;;;;;;38.13;21.73;;;;;;;;;;730838;189;918978;-63
2021/12/23 12:06:01;;;;;;;32.27;21.10;;;;;;;;;;722243;189;919067;-63
2021/12/23 12:08:27;;;;;;;29.57;17.27;;;;;;;;;;721309;189;918753;-62
2021/12/23 12:10:53;;;;;;;32.97;20.70;;;;;;;;;;727489;189;1120859;-62
2021/12/23 12:13:20;;;;;;;36.47;20.60;;;;;;;;;;737477;189;918379;-63
2021/12/23 12:15:47;;;;;;;36.53;19.17;;;;;;;;;;734356;189;904966;-63
2021/12/23 12:18:11;;;;;;;33.90;19.23;;;;;;;;;;730660;189;924965;-63
2021/12/23 12:20:59;;;;;;;36.67;19.37;;;;;;;;;;735236;189;915604;-63
2021/12/23 12:23:22;;;;;;;32.73;19.03;;;;;;;;;;736563;189;919242;-62
2021/12/23 12:25:48;;;;;;;33.00;18.30;;;;;;;;;;727504;193;918206;-63
2021/12/23 12:28:17;;;;;;;33.47;20.00;;;;;;;;;;730189;189;1181318;-62
2021/12/23 12:30:42;;;;;;;29.43;16.57;;;;;;;;;;725729;189;919490;-64
2021/12/23 12:33:12;;;;;;;31.10;17.83;;;;;;;;;;732861;189;919782;-63
2021/12/23 12:35:37;;;;;;;27.03;14.90;;;;;;;;;;727307;189;922968;-63
2021/12/23 12:38:12;;;;;;;30.60;18.07;;;;;;;;;;729305;189;919168;-63
2021/12/23 12:40:52;;;;;;;38.40;22.40;;;;;;;;;;725855;189;916296;-63
2021/12/23 12:43:24;;;;;;;34.60;18.80;;;;;;;;;;720334;189;918956;-62
2021/12/23 12:45:50;;;;;;;29.77;16.53;;;;;;;;;;726421;191;913066;-63
2021/12/23 12:48:16;;;;;;;33.43;18.10;;;;;;;;;;727945;189;917770;-63
2021/12/23 12:50:43;;;;;;;27.57;17.50;;;;;;;;;;717686;190;924545;-63
2021/12/23 12:53:13;;;;;;;30.40;16.15;;;;;;;;;;720557;190;1030934;-63
2021/12/23 12:55:33;;;;;;;30.77;17.90;;;;;;;;;;728475;189;918764;-63
2021/12/23 12:58:01;;;;;;;30.60;16.87;;;;;;;;;;726281;189;916991;-63
2021/12/23 13:00:27;;;;;;;24.17;15.23;;;;;;;;;;722488;190;917870;-63
2021/12/23 13:03:01;;;;;;;22.53;14.03;;;;;;;;;;725406;186;919347;-64
2021/12/23 13:05:25;;;;;;;30.80;15.40;;;;;;;;;;722761;189;1018244;-63
2021/12/23 13:07:52;;;;;;;32.83;14.90;;;;;;;;;;723953;189;917774;-64
2021/12/23 13:10:20;;;;;;;24.73;12.67;;;;;;;;;;727829;189;919219;-63
2021/12/23 13:12:51;;;;;;;26.73;15.03;;;;;;;;;;728670;189;1021543;-64
2021/12/23 13:15:18;;;;;;;20.63;13.57;;;;;;;;;;726862;189;919190;-64
2021/12/23 13:17:46;;;;;;;23.17;12.93;;;;;;;;;;722624;189;1021286;-63
2021/12/23 13:20:12;;;;;;;21.73;13.53;;;;;;;;;;730899;189;918945;-64
2021/12/23 13:22:39;;;;;;;26.70;13.90;;;;;;;;;;732228;190;919000;-64
2021/12/23 13:25:04;;;;;;;22.07;11.50;;;;;;;;;;721507;189;918859;-64
2021/12/23 13:27:30;;;;;;;19.33;11.13;;;;;;;;;;722723;189;920307;-64
2021/12/23 13:30:02;;;;;;;14.73;9.03;;;;;;;;;;735319;189;919238;-63
2021/12/23 13:32:27;;;;;;;18.10;10.77;;;;;;;;;;726428;189;918861;-63
2021/12/23 13:34:53;;;;;;;13.87;9.87;;;;;;;;;;723906;189;919256;-63
2021/12/23 13:37:19;;;;;;;19.10;10.13;;;;;;;;;;725003;189;919736;-64
2021/12/23 13:39:45;;;;;;;18.73;12.18;;;;;;;;;;733426;189;918203;-64
2021/12/23 13:42:11;;;;;;;31.10;17.77;;;;;;;;;;726387;189;919262;-64
2021/12/23 13:44:37;;;;;;;27.90;12.43;;;;;;;;;;723871;189;919251;-64
2021/12/23 13:47:03;;;;;;;24.70;14.37;;;;;;;;;;731308;189;1029959;-64
2021/12/23 13:49:31;;;;;;;27.50;13.87;;;;;;;;;;725889;189;917788;-64
2021/12/23 13:51:57;;;;;;;16.13;10.40;;;;;;;;;;721304;190;1021235;-65
2021/12/23 13:54:23;;;;;;;29.13;17.63;;;;;;;;;;727875;189;919671;-66
2021/12/23 13:56:49;;;;;;;33.70;15.88;;;;;;;;;;722381;189;920444;-65
2021/12/23 13:59:17;;;;;;;29.50;16.13;;;;;;;;;;723749;189;918354;-65
2021/12/23 14:02:00;;;;;;;27.67;15.07;;;;;;;;;;724844;189;919158;-64
2021/12/23 14:04:41;;;;;;;27.73;15.67;;;;;;;;;;720122;189;918648;-64
2021/12/23 14:07:07;;;;;;;24.30;15.63;;;;;;;;;;723999;189;923875;-65
2021/12/23 14:09:33;;;;;;;26.50;13.70;;;;;;;;;;726911;191;918745;-65
2021/12/23 14:12:00;;;;;;;28.73;15.83;;;;;;;;;;731399;189;918174;-65
2021/12/23 14:14:25;;;;;;;29.47;17.47;;;;;;;;;;724072;189;919274;-65
2021/12/23 14:16:51;;;;;;;29.33;18.30;;;;;;;;;;725287;189;919466;-66
2021/12/23 14:23:11;;;;;;;30.47;16.47;;;;;;;;;;721781;189;1023881;-65
2021/12/23 14:24:33;;;;;;;29.10;17.50;;;;;;;;;;724162;189;918803;-66
2021/12/23 14:26:59;;;;;;;34.53;18.70;;;;;;;;;;722625;189;918589;-65
2021/12/23 14:29:24;;;;;;;27.83;16.80;;;;;;;;;;731480;189;918009;-65
2021/12/23 14:31:51;;;;;;;32.17;16.30;;;;;;;;;;729852;189;918715;-65
2021/12/23 14:34:19;;;;;;;33.50;18.20;;;;;;;;;;721543;189;918923;-66
2021/12/23 14:36:45;;;;;;;37.73;18.60;;;;;;;;;;738118;189;873527;-65
2021/12/23 14:39:11;;;;;;;22.80;15.57;;;;;;;;;;734896;189;920038;-66
2021/12/23 14:41:37;;;;;;;31.83;18.50;;;;;;;;;;728678;189;919413;-65
2021/12/23 14:44:03;;;;;;;29.63;17.87;;;;;;;;;;726488;189;918577;-66
2021/12/23 14:46:39;;;;;;;38.13;18.23;;;;;;;;;;728930;189;917205;-66
2021/12/23 14:51:45;;;;;;;30.37;17.90;;;;;;;;;;719626;189;918719;-66
2021/12/23 14:54:11;;;;;;;34.50;22.50;;;;;;;;;;721887;189;918879;-65
2021/12/23 14:56:37;;;;;;;40.50;21.30;;;;;;;;;;724867;189;918744;-64
2021/12/23 14:59:04;;;;;;;30.00;16.17;;;;;;;;;;731490;189;918111;-66
2021/12/23 15:01:30;;;;;;;39.93;21.43;;;;;;;;;;730053;186;932865;-66
2021/12/23 15:04:04;;;;;;;35.88;20.98;;;;;;;;;;725266;189;919232;-66